createdAt,value
2022-08-17T00:01:53.246Z,17.86
2022-08-17T00:04:37.279Z,17.87
2022-08-17T00:07:15.292Z,17.81
2022-08-17T00:10:00.898Z,17.80
2022-08-17T00:12:45.269Z,17.77
2022-08-17T00:15:34.903Z,17.76
2022-08-17T00:19:06.139Z,17.75
2022-08-17T00:21:25.151Z,17.68
2022-08-17T00:23:56.250Z,17.64
2022-08-17T00:26:45.174Z,17.52
2022-08-17T00:29:24.268Z,17.60
2022-08-17T00:33:12.432Z,17.57
2022-08-17T00:35:11.912Z,17.51
2022-08-17T00:37:57.872Z,17.48
2022-08-17T00:40:45.607Z,17.49
2022-08-17T00:43:42.265Z,17.44
2022-08-17T00:46:23.389Z,17.36
2022-08-17T00:49:12.619Z,17.36
2022-08-17T00:52:10.693Z,17.30
2022-08-17T00:54:55.181Z,17.26
2022-08-17T00:57:53.391Z,17.30
2022-08-17T01:00:36.319Z,17.28
2022-08-17T01:03:34.537Z,17.30
2022-08-17T01:06:09.551Z,17.25
2022-08-17T01:08:57.563Z,17.21
2022-08-17T01:11:39.046Z,17.17
2022-08-17T01:14:19.438Z,17.19
2022-08-17T01:16:58.345Z,17.17
2022-08-17T01:19:34.432Z,17.13
2022-08-17T01:22:32.631Z,17.09
2022-08-17T01:25:26.196Z,17.06
2022-08-17T01:28:07.233Z,17.05
2022-08-17T01:30:56.697Z,16.98
2022-08-17T01:33:40.451Z,16.98
2022-08-17T01:36:26.946Z,16.97
2022-08-17T01:39:04.303Z,16.92
2022-08-17T01:41:47.465Z,16.93
2022-08-17T01:44:24.413Z,16.92
2022-08-17T01:50:01.977Z,16.95
2022-08-17T01:52:46.551Z,16.93
2022-08-17T01:55:33.994Z,16.92
2022-08-17T01:58:17.851Z,16.92
2022-08-17T02:01:00.762Z,16.86
2022-08-17T02:03:59.209Z,16.86
2022-08-17T02:06:53.537Z,16.80
2022-08-17T02:09:30.233Z,16.79
2022-08-17T02:12:37.852Z,16.76
2022-08-17T02:15:21.217Z,16.77
2022-08-17T02:17:54.593Z,16.75
2022-08-17T02:20:41.394Z,16.63
2022-08-17T02:23:21.300Z,16.62
2022-08-17T02:26:09.036Z,16.57
2022-08-17T02:29:01.800Z,16.59
2022-08-17T02:31:56.643Z,16.56
2022-08-17T02:34:29.306Z,16.55
2022-08-17T02:37:11.230Z,16.57
2022-08-17T02:39:59.041Z,16.56
2022-08-17T02:42:49.109Z,16.52
2022-08-17T02:45:37.151Z,16.45
2022-08-17T02:48:16.275Z,16.40
2022-08-17T02:51:11.292Z,16.36
2022-08-17T02:53:47.457Z,16.37
2022-08-17T02:56:29.288Z,16.37
2022-08-17T02:59:05.199Z,16.32
2022-08-17T03:01:44.957Z,16.27
2022-08-17T03:04:18.499Z,16.25
2022-08-17T03:06:54.298Z,16.22
2022-08-17T03:09:33.974Z,16.21
2022-08-17T03:12:25.617Z,16.13
2022-08-17T03:14:58.138Z,16.12
2022-08-17T03:17:48.271Z,16.10
2022-08-17T03:20:28.114Z,16.03
2022-08-17T03:23:14.846Z,15.95
2022-08-17T03:25:53.624Z,15.97
2022-08-17T03:28:40.032Z,15.92
2022-08-17T03:31:21.816Z,15.91
2022-08-17T03:34:01.097Z,15.90
2022-08-17T03:36:36.061Z,15.90
2022-08-17T03:39:22.333Z,15.89
2022-08-17T03:42:32.369Z,15.91
2022-08-17T03:45:39.221Z,15.86
2022-08-17T03:48:46.056Z,15.80
2022-08-17T03:51:42.904Z,15.82
2022-08-17T03:54:31.281Z,15.72
2022-08-17T03:57:20.267Z,15.80
2022-08-17T03:59:58.154Z,15.83
2022-08-17T04:02:40.543Z,15.82
2022-08-17T04:05:27.279Z,15.86
2022-08-17T04:08:12.309Z,15.82
2022-08-17T04:11:01.271Z,15.84
2022-08-17T04:13:42.913Z,15.85
2022-08-17T04:16:34.916Z,15.92
2022-08-17T04:19:18.246Z,15.93
2022-08-17T04:21:59.395Z,15.96
2022-08-17T04:24:37.746Z,15.98
2022-08-17T04:27:27.507Z,16.00
2022-08-17T04:30:03.449Z,16.03
2022-08-17T04:33:05.147Z,16.11
2022-08-17T04:36:00.730Z,16.14
2022-08-17T04:38:45.129Z,16.18
2022-08-17T04:41:40.316Z,16.25
2022-08-17T04:44:30.406Z,16.43
2022-08-17T04:47:20.631Z,16.53
2022-08-17T04:50:07.687Z,16.62
2022-08-17T04:53:00.549Z,16.76
2022-08-17T04:55:36.235Z,16.91
2022-08-17T04:58:19.322Z,17.07
2022-08-17T05:00:56.843Z,17.27
2022-08-17T05:03:47.230Z,17.47
2022-08-17T05:06:22.135Z,17.70
2022-08-17T05:09:17.712Z,17.92
2022-08-17T05:11:50.841Z,18.15
2022-08-17T05:14:33.582Z,18.47
2022-08-17T05:17:20.311Z,18.76
2022-08-17T05:20:02.424Z,18.97
2022-08-17T05:22:51.577Z,19.25
2022-08-17T05:25:29.369Z,19.64
2022-08-17T05:28:12.292Z,19.93
2022-08-17T05:30:43.924Z,20.16
2022-08-17T05:33:21.104Z,20.41
2022-08-17T05:35:58.317Z,20.65
2022-08-17T05:38:35.301Z,20.93
2022-08-17T05:41:15.428Z,21.30
2022-08-17T05:43:57.291Z,21.66
2022-08-17T05:46:38.421Z,22.05
2022-08-17T05:49:17.927Z,22.52
2022-08-17T05:52:07.350Z,23.01
2022-08-17T05:55:05.581Z,23.48
2022-08-17T05:58:00.342Z,23.82
2022-08-17T06:00:56.066Z,24.10
2022-08-17T06:04:24.264Z,24.49
2022-08-17T06:07:32.949Z,24.86
2022-08-17T06:10:34.301Z,25.08
2022-08-17T06:13:23.262Z,25.15
2022-08-17T06:16:33.175Z,25.33
2022-08-17T06:19:49.247Z,25.54
2022-08-17T06:22:18.592Z,26.00
2022-08-17T06:25:22.061Z,26.26
2022-08-17T06:28:29.319Z,26.50
2022-08-17T06:31:22.359Z,26.73
2022-08-17T06:34:04.638Z,26.98
2022-08-17T06:37:14.598Z,26.91
2022-08-17T06:40:01.323Z,27.10
2022-08-17T06:43:05.940Z,27.61
2022-08-17T06:46:17.367Z,27.96
2022-08-17T06:49:29.147Z,27.96
2022-08-17T06:52:13.640Z,28.08
2022-08-17T06:55:18.057Z,28.52
2022-08-17T06:57:58.305Z,28.64
2022-08-17T07:00:43.300Z,28.70
2022-08-17T07:03:47.700Z,28.61
2022-08-17T07:06:26.331Z,29.09
2022-08-17T07:09:09.151Z,29.17
2022-08-17T07:12:11.483Z,29.30
2022-08-17T07:15:25.980Z,29.51
2022-08-17T07:17:59.789Z,29.47
2022-08-17T07:20:40.815Z,29.51
2022-08-17T07:24:03.450Z,29.51
2022-08-17T07:26:36.294Z,29.72
2022-08-17T07:29:23.991Z,29.85
2022-08-17T07:32:29.632Z,29.89
2022-08-17T07:35:57.797Z,30.13
2022-08-17T07:38:57.280Z,30.14
2022-08-17T07:41:53.318Z,30.26
2022-08-17T07:44:37.326Z,30.36
2022-08-17T07:47:40.584Z,30.42
2022-08-17T07:50:39.260Z,30.60
2022-08-17T07:53:31.263Z,30.67
2022-08-17T07:56:08.615Z,30.79
2022-08-17T07:58:46.810Z,30.70
2022-08-17T08:01:27.868Z,30.65
2022-08-17T08:05:02.037Z,30.74
2022-08-17T08:08:08.661Z,30.61
2022-08-17T08:11:00.304Z,30.63
2022-08-17T08:13:43.253Z,30.56
2022-08-17T08:16:26.093Z,30.74
2022-08-17T08:19:11.815Z,31.00
2022-08-17T08:21:59.157Z,30.80
2022-08-17T08:24:58.252Z,31.18
2022-08-17T08:28:21.875Z,31.29
2022-08-17T08:31:24.491Z,31.44
2022-08-17T08:34:44.436Z,31.34
2022-08-17T08:37:37.974Z,31.12
2022-08-17T08:40:46.054Z,31.70
2022-08-17T08:43:52.850Z,31.96
2022-08-17T08:46:40.790Z,31.89
2022-08-17T08:50:01.270Z,31.98
2022-08-17T08:52:30.953Z,32.29
2022-08-17T08:55:20.685Z,32.25
2022-08-17T08:58:31.871Z,32.27
2022-08-17T09:01:38.547Z,32.33
2022-08-17T09:05:14.751Z,32.52
2022-08-17T09:08:29.990Z,32.69
2022-08-17T09:11:30.428Z,32.54
2022-08-17T09:14:28.662Z,32.67
2022-08-17T09:17:17.138Z,32.90
2022-08-17T09:20:27.343Z,32.97
2022-08-17T09:23:08.790Z,32.91
2022-08-17T09:26:06.032Z,32.80
2022-08-17T09:28:50.263Z,33.07
2022-08-17T09:31:48.950Z,32.93
2022-08-17T09:35:09.319Z,32.79
2022-08-17T09:38:14.083Z,33.20
2022-08-17T09:41:23.984Z,33.25
2022-08-17T09:44:23.192Z,33.38
2022-08-17T09:47:30.011Z,33.33
2022-08-17T09:50:55.328Z,33.40
2022-08-17T09:53:32.814Z,33.54
2022-08-17T09:56:42.336Z,33.26
2022-08-17T09:59:35.949Z,33.31
2022-08-17T10:02:25.319Z,33.31
2022-08-17T10:05:34.200Z,33.56
2022-08-17T10:08:25.862Z,33.61
2022-08-17T10:11:45.734Z,33.43
2022-08-17T10:14:44.130Z,34.05
2022-08-17T10:17:41.673Z,34.27
2022-08-17T10:20:27.794Z,34.53
2022-08-17T10:23:29.515Z,34.30
2022-08-17T10:26:18.202Z,34.15
2022-08-17T10:28:58.783Z,33.91
2022-08-17T10:31:55.625Z,33.66
2022-08-17T10:34:42.851Z,33.91
2022-08-17T10:37:39.616Z,33.27
2022-08-17T10:40:30.980Z,33.21
2022-08-17T10:43:14.643Z,33.63
2022-08-17T10:46:10.443Z,34.00
2022-08-17T10:49:34.073Z,34.24
2022-08-17T10:52:27.321Z,34.36
2022-08-17T10:55:10.864Z,33.98
2022-08-17T10:57:49.571Z,34.08
2022-08-17T11:00:27.913Z,34.23
2022-08-17T11:03:04.992Z,34.50
2022-08-17T11:05:54.319Z,34.67
2022-08-17T11:09:03.000Z,34.69
2022-08-17T11:11:56.510Z,34.88
2022-08-17T11:15:07.223Z,34.92
2022-08-17T11:18:09.017Z,35.34
2022-08-17T11:21:06.079Z,35.28
2022-08-17T11:23:58.426Z,35.16
2022-08-17T11:26:41.645Z,35.41
2022-08-17T11:29:27.621Z,35.19
2022-08-17T11:32:37.073Z,35.72
2022-08-17T11:35:41.232Z,35.55
2022-08-17T11:38:46.230Z,35.33
2022-08-17T11:42:05.672Z,35.46
2022-08-17T11:45:31.737Z,35.42
2022-08-17T11:49:02.984Z,35.72
2022-08-17T11:52:05.086Z,35.74
2022-08-17T11:54:51.406Z,35.35
2022-08-17T11:58:09.727Z,34.53
2022-08-17T12:00:56.567Z,34.05
2022-08-17T12:03:54.671Z,34.36
2022-08-17T12:06:37.099Z,34.77
2022-08-17T12:09:26.468Z,35.08
2022-08-17T12:12:33.395Z,35.53
2022-08-17T12:15:19.720Z,36.04
2022-08-17T12:18:04.326Z,36.32
2022-08-17T12:20:56.501Z,36.57
2022-08-17T12:23:45.431Z,36.18
2022-08-17T12:26:22.762Z,36.26
2022-08-17T12:29:06.454Z,36.43
2022-08-17T12:32:02.339Z,36.19
2022-08-17T12:34:50.300Z,36.52
2022-08-17T12:37:28.161Z,36.66
2022-08-17T12:40:27.107Z,37.05
2022-08-17T12:43:12.333Z,37.41
2022-08-17T12:46:10.674Z,37.80
2022-08-17T12:48:55.081Z,37.20
2022-08-17T12:51:43.638Z,37.28
2022-08-17T12:55:06.231Z,36.98
2022-08-17T12:57:38.895Z,36.95
2022-08-17T13:00:20.092Z,36.90
2022-08-17T13:03:15.830Z,36.86
2022-08-17T13:06:09.592Z,37.12
2022-08-17T13:08:48.338Z,37.17
2022-08-17T13:11:24.907Z,37.17
2022-08-17T13:14:11.398Z,37.19
2022-08-17T13:16:58.020Z,37.37
2022-08-17T13:19:40.695Z,37.83
2022-08-17T13:22:13.990Z,38.03
2022-08-17T13:25:09.223Z,38.00
2022-08-17T13:27:43.562Z,37.93
2022-08-17T13:30:23.997Z,37.67
2022-08-17T13:32:59.293Z,37.92
2022-08-17T13:36:08.191Z,37.67
2022-08-17T13:38:51.848Z,37.47
2022-08-17T13:41:36.765Z,37.69
2022-08-17T13:44:36.951Z,38.15
2022-08-17T13:47:23.477Z,38.24
2022-08-17T13:49:55.306Z,38.00
2022-08-17T13:52:48.784Z,37.71
2022-08-17T13:55:34.026Z,37.61
2022-08-17T13:58:12.378Z,37.75
2022-08-17T14:00:50.653Z,37.93
2022-08-17T14:03:20.923Z,37.97
2022-08-17T14:06:02.658Z,38.31
2022-08-17T14:08:39.663Z,38.12
2022-08-17T14:11:25.414Z,38.00
2022-08-17T14:13:55.317Z,38.04
2022-08-17T14:16:33.684Z,38.37
2022-08-17T14:19:11.603Z,38.26
2022-08-17T14:21:45.447Z,37.97
2022-08-17T14:24:25.727Z,37.84
2022-08-17T14:27:04.600Z,38.07
2022-08-17T14:29:42.573Z,37.98
2022-08-17T14:32:32.293Z,37.78
2022-08-17T14:35:13.320Z,38.07
2022-08-17T14:37:58.828Z,38.22
2022-08-17T14:40:41.081Z,38.11
2022-08-17T14:43:20.563Z,37.67
2022-08-17T14:45:56.204Z,37.90
2022-08-17T14:48:38.670Z,37.94
2022-08-17T14:51:13.794Z,37.85
2022-08-17T14:53:47.051Z,37.63
2022-08-17T14:56:31.691Z,37.44
2022-08-17T14:59:18.054Z,37.06
2022-08-17T15:01:53.804Z,36.98
2022-08-17T15:04:31.879Z,37.26
2022-08-17T15:07:09.059Z,37.36
2022-08-17T15:09:46.698Z,36.83
2022-08-17T15:12:34.795Z,36.56
2022-08-17T15:15:12.892Z,37.11
2022-08-17T15:17:46.004Z,37.35
2022-08-17T15:20:39.663Z,37.44
2022-08-17T15:23:20.621Z,37.57
2022-08-17T15:25:58.287Z,37.61
2022-08-17T15:28:36.504Z,37.39
2022-08-17T15:31:09.453Z,37.55
2022-08-17T15:33:47.325Z,37.59
2022-08-17T15:36:28.208Z,37.45
2022-08-17T15:39:06.204Z,37.43
2022-08-17T15:41:38.480Z,37.41
2022-08-17T15:44:18.925Z,37.31
2022-08-17T15:46:52.360Z,37.30
2022-08-17T15:49:39.098Z,37.54
2022-08-17T15:52:31.348Z,37.83
2022-08-17T15:55:09.540Z,38.28
2022-08-17T15:57:47.712Z,38.39
2022-08-17T16:00:24.364Z,38.38
2022-08-17T16:03:45.755Z,38.82
2022-08-17T16:05:59.254Z,39.08
2022-08-17T16:08:43.693Z,39.21
2022-08-17T16:11:26.064Z,40.13
2022-08-17T16:13:59.444Z,40.11
2022-08-17T16:16:42.680Z,40.71
2022-08-17T16:19:23.290Z,40.85
2022-08-17T16:22:02.256Z,40.66
2022-08-17T16:24:56.743Z,41.06
2022-08-17T16:27:35.176Z,41.93
2022-08-17T16:30:17.084Z,42.80
2022-08-17T16:32:58.518Z,42.89
2022-08-17T16:35:35.901Z,42.57
2022-08-17T16:38:12.524Z,42.65
2022-08-17T16:40:47.598Z,42.78
2022-08-17T16:43:25.610Z,42.25
2022-08-17T16:46:03.578Z,41.79
2022-08-17T16:48:38.661Z,42.04
2022-08-17T16:51:16.469Z,42.65
2022-08-17T16:53:59.173Z,42.93
2022-08-17T16:56:35.632Z,42.58
2022-08-17T16:59:41.853Z,42.42
2022-08-17T17:02:27.770Z,42.60
2022-08-17T17:05:31.158Z,42.16
2022-08-17T17:08:07.781Z,41.15
2022-08-17T17:10:49.005Z,39.27
2022-08-17T17:13:35.077Z,37.52
2022-08-17T17:16:21.626Z,36.22
2022-08-17T17:19:16.793Z,35.33
2022-08-17T17:22:12.393Z,34.45
2022-08-17T17:25:11.951Z,33.90
2022-08-17T17:28:19.480Z,33.29
2022-08-17T17:31:09.329Z,32.94
2022-08-17T17:33:48.074Z,32.53
2022-08-17T17:36:25.567Z,32.19
2022-08-17T17:39:33.995Z,31.81
2022-08-17T17:42:14.616Z,31.46
2022-08-17T17:45:17.399Z,31.08
2022-08-17T17:47:53.626Z,30.81
2022-08-17T17:50:57.507Z,30.44
2022-08-17T17:53:50.340Z,30.14
2022-08-17T17:56:44.060Z,29.88
2022-08-17T17:59:49.182Z,29.49
2022-08-17T18:02:51.624Z,29.27
2022-08-17T18:05:51.722Z,28.95
2022-08-17T18:08:37.514Z,28.72
2022-08-17T18:11:42.414Z,28.44
2022-08-17T18:14:46.484Z,28.14
2022-08-17T18:17:22.665Z,27.85
2022-08-17T18:19:57.287Z,27.67
2022-08-17T18:22:31.425Z,27.53
2022-08-17T18:25:25.431Z,27.31
2022-08-17T18:28:14.587Z,26.96
2022-08-17T18:31:04.336Z,26.59
2022-08-17T18:33:51.333Z,26.48
2022-08-17T18:36:42.168Z,26.32
2022-08-17T18:39:27.734Z,26.04
2022-08-17T18:42:06.300Z,25.90
2022-08-17T18:44:44.695Z,25.77
2022-08-17T18:47:27.632Z,25.70
2022-08-17T18:50:05.123Z,25.52
2022-08-17T18:52:55.277Z,25.17
2022-08-17T18:55:32.827Z,25.14
2022-08-17T18:58:20.734Z,25.03
2022-08-17T19:01:01.772Z,24.90
2022-08-17T19:03:50.359Z,24.88
2022-08-17T19:06:39.566Z,24.75
2022-08-17T19:09:34.721Z,24.63
2022-08-17T19:12:16.795Z,24.54
2022-08-17T19:14:56.284Z,24.42
2022-08-17T19:17:41.128Z,24.19
2022-08-17T19:20:21.876Z,24.09
2022-08-17T19:23:23.136Z,23.92
2022-08-17T19:26:05.810Z,23.75
2022-08-17T19:29:25.698Z,23.64
2022-08-17T19:32:06.293Z,23.55
2022-08-17T19:34:47.702Z,23.51
2022-08-17T19:37:47.471Z,23.38
2022-08-17T19:40:52.425Z,23.33
2022-08-17T19:43:56.269Z,23.20
2022-08-17T19:46:56.247Z,23.10
2022-08-17T19:49:58.743Z,22.98
2022-08-17T19:52:42.391Z,22.97
2022-08-17T19:55:39.637Z,22.95
2022-08-17T19:58:35.584Z,22.84
2022-08-17T20:01:17.051Z,22.81
2022-08-17T20:04:11.329Z,22.68
2022-08-17T20:06:57.303Z,22.64
2022-08-17T20:09:47.096Z,22.49
2022-08-17T20:12:26.265Z,22.45
2022-08-17T20:15:14.080Z,22.31
2022-08-17T20:17:53.259Z,22.28
2022-08-17T20:20:56.217Z,22.12
2022-08-17T20:23:54.956Z,22.12
2022-08-17T20:26:51.244Z,22.07
2022-08-17T20:29:56.139Z,21.99
2022-08-17T20:32:32.456Z,21.96
2022-08-17T20:35:26.067Z,21.84
2022-08-17T20:38:10.550Z,21.86
2022-08-17T20:41:03.154Z,21.83
2022-08-17T20:43:53.184Z,21.81
2022-08-17T20:47:05.830Z,21.75
2022-08-17T20:49:47.372Z,21.72
2022-08-17T20:53:19.388Z,21.64
2022-08-17T20:55:58.203Z,21.63
2022-08-17T20:58:37.108Z,21.56
2022-08-17T21:01:20.368Z,21.51
2022-08-17T21:03:55.336Z,21.40
2022-08-17T21:06:56.313Z,21.31
2022-08-17T21:09:41.968Z,21.28
2022-08-17T21:12:36.347Z,21.23
2022-08-17T21:15:25.151Z,21.15
2022-08-17T21:18:38.860Z,21.05
2022-08-17T21:21:48.896Z,21.03
2022-08-17T21:25:04.291Z,20.99
2022-08-17T21:28:03.670Z,20.84
2022-08-17T21:30:58.047Z,20.84
2022-08-17T21:33:44.322Z,20.83
2022-08-17T21:36:31.721Z,20.79
2022-08-17T21:39:30.635Z,20.76
2022-08-17T21:42:12.867Z,20.68
2022-08-17T21:45:01.020Z,20.60
2022-08-17T21:47:36.330Z,20.58
2022-08-17T21:50:32.447Z,20.46
2022-08-17T21:53:11.332Z,20.39
2022-08-17T21:55:49.341Z,20.34
2022-08-17T21:58:40.690Z,20.30
2022-08-17T22:01:21.972Z,20.24
2022-08-17T22:04:16.012Z,20.11
2022-08-17T22:07:05.942Z,20.03
2022-08-17T22:09:49.109Z,19.92
2022-08-17T22:12:27.047Z,20.01
2022-08-17T22:15:21.245Z,20.47
2022-08-17T22:18:09.949Z,21.01
2022-08-17T22:20:53.515Z,21.38
2022-08-17T22:23:51.099Z,21.59
2022-08-17T22:26:49.324Z,21.80
2022-08-17T22:29:53.149Z,21.87
2022-08-17T22:32:48.326Z,21.83
2022-08-17T22:35:44.080Z,21.58
2022-08-17T22:38:30.349Z,21.39
2022-08-17T22:41:41.233Z,21.20
2022-08-17T22:44:58.169Z,21.01
2022-08-17T22:47:48.908Z,20.85
2022-08-17T22:50:35.132Z,20.79
2022-08-17T22:53:40.451Z,20.62
2022-08-17T22:56:40.987Z,20.58
2022-08-17T22:59:23.526Z,20.49
2022-08-17T23:02:13.170Z,20.36
2022-08-17T23:04:53.480Z,20.39
2022-08-17T23:07:31.724Z,20.27
2022-08-17T23:10:16.327Z,20.24
2022-08-17T23:12:57.503Z,20.20
2022-08-17T23:15:39.166Z,20.13
2022-08-17T23:18:17.340Z,20.02
2022-08-17T23:21:01.047Z,19.98
2022-08-17T23:23:51.615Z,19.91
2022-08-17T23:26:26.478Z,19.86
2022-08-17T23:29:07.707Z,19.86
2022-08-17T23:31:43.463Z,19.83
2022-08-17T23:34:20.389Z,19.78
2022-08-17T23:37:05.389Z,19.78
2022-08-17T23:39:47.741Z,19.71
2022-08-17T23:42:26.360Z,19.65
2022-08-17T23:45:10.246Z,19.60
2022-08-17T23:47:53.235Z,19.56
2022-08-17T23:50:41.040Z,19.48
2022-08-17T23:53:12.980Z,19.43
2022-08-17T23:56:06.886Z,19.40
2022-08-17T23:58:55.376Z,19.33
